createdAt,value
2018-12-12T06:25:37.171Z,3.80
2018-12-12T06:28:09.646Z,3.80
2018-12-12T06:30:42.103Z,3.80
2018-12-12T06:33:15.184Z,3.80
2018-12-12T06:35:47.633Z,3.80
2018-12-12T06:38:20.365Z,3.80
2018-12-12T06:40:53.010Z,3.80
2018-12-12T06:43:25.550Z,3.80
2018-12-12T06:45:57.980Z,3.80
2018-12-12T06:48:30.652Z,3.70
2018-12-12T06:51:03.423Z,3.70
2018-12-12T06:53:35.874Z,3.80
2018-12-12T06:56:08.358Z,3.80
2018-12-12T06:58:41.003Z,3.80
2018-12-12T07:01:13.450Z,3.80
2018-12-12T07:03:45.881Z,3.80
2018-12-12T07:06:18.393Z,3.80
2018-12-12T07:08:52.007Z,3.80
2018-12-12T07:11:24.499Z,3.80
2018-12-12T07:13:56.959Z,3.80
2018-12-12T07:16:29.385Z,3.80
2018-12-12T07:19:01.831Z,3.70
2018-12-12T07:21:35.011Z,3.70
2018-12-12T07:24:07.445Z,3.70
2018-12-12T07:26:40.172Z,3.70
2018-12-12T07:29:12.608Z,3.70
2018-12-12T07:31:45.370Z,3.60
2018-12-12T07:34:17.805Z,3.70
2018-12-12T07:36:50.233Z,3.60
2018-12-12T07:39:22.689Z,3.60
2018-12-12T07:41:55.356Z,3.60
2018-12-12T07:44:28.121Z,3.60
2018-12-12T07:47:00.530Z,3.50
2018-12-12T07:49:32.946Z,3.50
2018-12-12T07:52:05.373Z,3.50
2018-12-12T07:54:37.799Z,3.40
2018-12-12T07:57:10.321Z,3.40
2018-12-12T07:59:42.769Z,3.40
2018-12-12T08:02:15.422Z,3.40
2018-12-12T08:04:47.865Z,3.40
2018-12-12T08:07:20.296Z,3.40
2018-12-12T08:09:52.741Z,3.40
2018-12-12T08:12:25.160Z,3.40
2018-12-12T08:14:57.824Z,3.40
2018-12-12T08:17:30.233Z,3.40
2018-12-12T08:20:02.663Z,3.40
2018-12-12T08:22:35.348Z,3.40
2018-12-12T08:25:08.011Z,3.40
2018-12-12T08:27:40.982Z,3.40
2018-12-12T08:30:13.393Z,3.40
2018-12-12T08:32:47.041Z,3.30
2018-12-12T08:35:19.469Z,3.40
2018-12-12T08:37:51.929Z,3.40
2018-12-12T08:40:24.920Z,3.50
2018-12-12T08:42:57.363Z,3.50
2018-12-12T08:45:29.784Z,3.50
2018-12-12T08:48:02.445Z,3.50
2018-12-12T08:50:35.120Z,3.50
2018-12-12T08:53:07.588Z,3.50
2018-12-12T08:55:39.984Z,3.60
2018-12-12T08:58:12.392Z,3.70
2018-12-12T09:00:45.837Z,3.80
2018-12-12T09:03:18.238Z,3.90
2018-12-12T09:05:50.652Z,3.90
2018-12-12T09:08:23.064Z,3.90
2018-12-12T09:10:55.804Z,4.00
2018-12-12T09:13:28.690Z,4.00
2018-12-12T09:16:01.203Z,4.20
2018-12-12T09:18:34.612Z,4.30
2018-12-12T09:21:07.025Z,4.40
2018-12-12T09:23:39.436Z,4.50
2018-12-12T09:26:11.850Z,4.50
2018-12-12T09:28:44.260Z,4.50
2018-12-12T09:31:16.684Z,4.50
2018-12-12T09:33:49.086Z,4.50
2018-12-12T09:36:21.775Z,4.50
2018-12-12T09:38:54.182Z,4.50
2018-12-12T09:41:26.944Z,4.50
2018-12-12T09:43:59.359Z,4.50
2018-12-12T09:46:31.768Z,4.50
2018-12-12T09:49:04.180Z,4.50
2018-12-12T09:51:36.599Z,4.50
2018-12-12T09:54:09.035Z,4.60
2018-12-12T09:56:41.457Z,4.70
2018-12-12T09:59:14.376Z,4.80
2018-12-12T10:01:46.802Z,4.90
2018-12-12T10:04:19.214Z,4.90
2018-12-12T10:06:51.646Z,5.00
2018-12-12T10:09:24.063Z,5.00
2018-12-12T10:11:56.480Z,5.10
2018-12-12T10:14:28.908Z,5.10
2018-12-12T10:17:01.339Z,5.10
2018-12-12T10:19:33.758Z,5.10
2018-12-12T10:22:06.189Z,5.10
2018-12-12T10:24:38.600Z,5.10
2018-12-12T10:27:11.028Z,5.10
2018-12-12T10:29:43.453Z,5.10
2018-12-12T10:32:15.872Z,5.20
2018-12-12T10:34:48.294Z,5.20
2018-12-12T10:37:20.715Z,5.30
2018-12-12T10:39:53.419Z,5.30
2018-12-12T10:42:26.117Z,5.30
2018-12-12T10:44:58.532Z,5.30
2018-12-12T10:47:31.263Z,5.30
2018-12-12T10:50:04.948Z,5.30
2018-12-12T10:52:37.663Z,5.40
2018-12-12T10:55:10.061Z,5.40
2018-12-12T10:57:42.800Z,5.50
2018-12-12T11:00:15.568Z,5.50
2018-12-12T11:02:48.016Z,5.50
2018-12-12T11:05:21.125Z,5.50
2018-12-12T11:07:53.828Z,5.50
2018-12-12T11:10:26.244Z,5.50
2018-12-12T11:12:58.684Z,5.60
2018-12-12T11:15:31.172Z,5.60
2018-12-12T11:18:03.592Z,5.70
2018-12-12T11:20:36.264Z,5.80
2018-12-12T11:23:08.987Z,5.90
2018-12-12T11:25:41.393Z,5.90
2018-12-12T11:28:14.120Z,5.90
2018-12-12T11:30:46.540Z,5.90
2018-12-12T11:33:18.975Z,5.80
2018-12-12T11:35:51.380Z,5.80
2018-12-12T11:38:23.927Z,5.70
2018-12-12T11:40:56.327Z,5.60
2018-12-12T11:43:29.080Z,5.50
2018-12-12T11:46:01.492Z,5.40
2018-12-12T11:48:33.967Z,5.30
2018-12-12T11:51:06.380Z,5.30
2018-12-12T11:53:39.065Z,5.20
2018-12-12T11:56:11.728Z,5.20
2018-12-12T11:58:44.161Z,5.20
2018-12-12T12:01:16.816Z,5.20
2018-12-12T12:03:49.273Z,5.20
2018-12-12T12:06:21.703Z,5.20
2018-12-12T12:08:54.226Z,5.20
2018-12-12T12:11:26.633Z,5.30
2018-12-12T12:13:59.090Z,5.30
2018-12-12T12:16:31.859Z,5.30
2018-12-12T12:19:04.301Z,5.30
2018-12-12T12:21:36.778Z,5.40
2018-12-12T12:24:09.197Z,5.50
2018-12-12T12:26:41.700Z,5.70
2018-12-12T12:29:14.428Z,5.80
2018-12-12T12:31:46.864Z,5.90
2018-12-12T12:34:19.680Z,6.00
2018-12-12T12:36:52.366Z,6.00
2018-12-12T12:39:25.040Z,6.10
2018-12-12T12:41:57.477Z,6.20
2018-12-12T12:44:29.901Z,6.10
2018-12-12T12:47:02.365Z,6.00
2018-12-12T12:49:34.946Z,6.00
2018-12-12T12:52:07.720Z,5.90
2018-12-12T12:54:40.164Z,5.90
2018-12-12T12:57:12.621Z,5.80
2018-12-12T12:59:45.320Z,5.80
2018-12-12T13:02:17.773Z,5.80
2018-12-12T13:04:50.499Z,5.90
2018-12-12T13:07:23.702Z,6.00
2018-12-12T13:09:56.468Z,6.00
2018-12-12T13:12:29.142Z,6.10
2018-12-12T13:15:01.676Z,6.10
2018-12-12T13:17:34.103Z,6.20
2018-12-12T13:20:06.539Z,6.20
2018-12-12T13:22:38.971Z,6.20
2018-12-12T13:25:11.400Z,6.20
2018-12-12T13:30:22.884Z,6.20
2018-12-12T13:32:55.334Z,6.20
2018-12-12T13:35:27.744Z,6.10
2018-12-12T13:38:00.181Z,6.10
2018-12-12T13:40:32.599Z,6.00
2018-12-12T13:43:05.392Z,5.90
2018-12-12T13:45:37.831Z,5.80
2018-12-12T13:48:10.388Z,5.80
2018-12-12T13:50:42.808Z,5.90
2018-12-12T13:53:15.495Z,5.90
2018-12-12T13:55:48.165Z,5.90
2018-12-12T13:58:20.580Z,5.80
2018-12-12T14:00:53.010Z,5.80
2018-12-12T14:03:25.564Z,5.80
2018-12-12T14:05:57.976Z,5.80
2018-12-12T14:08:30.436Z,5.80
2018-12-12T14:11:03.226Z,5.80
2018-12-12T14:13:35.893Z,5.80
2018-12-12T14:16:08.540Z,5.80
2018-12-12T14:18:41.059Z,5.70
2018-12-12T14:21:13.456Z,5.80
2018-12-12T14:23:46.092Z,5.80
2018-12-12T14:26:18.780Z,5.80
2018-12-12T14:28:51.460Z,5.80
2018-12-12T14:31:24.111Z,5.70
2018-12-12T14:33:56.515Z,5.80
2018-12-12T14:36:29.028Z,5.80
2018-12-12T14:39:01.439Z,5.80
2018-12-12T14:41:33.977Z,5.80
2018-12-12T14:44:07.018Z,5.70
2018-12-12T14:46:39.444Z,5.70
2018-12-12T14:49:11.861Z,5.70
2018-12-12T14:51:44.279Z,5.60
2018-12-12T14:54:16.687Z,5.50
2018-12-12T14:56:49.099Z,5.50
2018-12-12T14:59:21.524Z,5.40
2018-12-12T15:01:53.975Z,5.40
2018-12-12T15:04:26.686Z,5.30
2018-12-12T15:06:59.420Z,5.30
2018-12-12T15:09:31.836Z,5.20
2018-12-12T15:12:04.264Z,5.20
2018-12-12T15:14:36.692Z,5.10
2018-12-12T15:17:09.104Z,5.10
2018-12-12T15:19:42.056Z,5.00
2018-12-12T15:22:14.583Z,5.00
2018-12-12T15:24:47.003Z,5.00
2018-12-12T15:27:19.436Z,4.90
2018-12-12T15:29:52.141Z,4.90
2018-12-12T15:32:24.552Z,4.80
2018-12-12T15:34:57.054Z,4.70
2018-12-12T15:37:29.455Z,4.70
2018-12-12T15:40:01.859Z,4.60
2018-12-12T15:42:34.282Z,4.50
2018-12-12T15:45:07.554Z,4.50
2018-12-12T15:47:39.949Z,4.40
2018-12-12T15:50:12.361Z,4.40
2018-12-12T15:52:44.777Z,4.40
2018-12-12T15:55:17.507Z,4.30
2018-12-12T15:57:49.959Z,4.30
2018-12-12T16:00:22.395Z,4.20
2018-12-12T16:02:55.163Z,4.20
2018-12-12T16:05:27.575Z,4.20
2018-12-12T16:08:00.281Z,4.20
2018-12-12T16:10:32.719Z,4.20
2018-12-12T16:13:05.145Z,4.20
2018-12-12T16:15:37.827Z,4.10
2018-12-12T16:18:10.246Z,4.10
2018-12-12T16:20:42.664Z,4.00
2018-12-12T16:23:15.122Z,4.00
2018-12-12T16:25:47.517Z,4.00
2018-12-12T16:28:19.928Z,4.00
2018-12-12T16:30:52.673Z,4.00
2018-12-12T16:33:25.117Z,3.90
2018-12-12T16:35:57.565Z,3.90
2018-12-12T16:38:29.964Z,3.90
2018-12-12T16:41:02.379Z,3.80
2018-12-12T16:43:34.784Z,3.80
2018-12-12T16:46:07.233Z,3.80
2018-12-12T16:48:39.646Z,3.80
2018-12-12T16:51:12.083Z,3.70
2018-12-12T16:53:44.486Z,3.70
2018-12-12T16:56:16.908Z,3.70
2018-12-12T16:58:49.312Z,3.60
2018-12-12T17:01:21.842Z,3.60
2018-12-12T17:03:54.320Z,3.50
2018-12-12T17:06:26.770Z,3.50
2018-12-12T17:08:59.173Z,3.50
2018-12-12T17:11:31.584Z,3.50
2018-12-12T17:14:04.037Z,3.40
2018-12-12T17:16:36.460Z,3.40
2018-12-12T17:19:08.878Z,3.30
2018-12-12T17:21:41.264Z,3.30
2018-12-12T17:24:13.696Z,3.30
2018-12-12T17:26:46.344Z,3.20
2018-12-12T17:29:19.028Z,3.20
2018-12-12T17:31:51.433Z,3.20
2018-12-12T17:34:24.228Z,3.20
2018-12-12T17:36:56.630Z,3.20
2018-12-12T17:39:29.138Z,3.20
2018-12-12T17:42:01.530Z,3.20
2018-12-12T17:44:34.500Z,3.20
2018-12-12T17:47:07.007Z,3.30
2018-12-12T17:49:39.980Z,3.30
2018-12-12T17:52:12.377Z,3.30
2018-12-12T17:54:44.788Z,3.30
2018-12-12T17:57:17.192Z,3.40
2018-12-12T17:59:49.880Z,3.40
2018-12-12T18:02:22.285Z,3.40
2018-12-12T18:04:54.704Z,3.50
2018-12-12T18:07:27.136Z,3.50
2018-12-12T18:09:59.808Z,3.40
2018-12-12T18:12:32.252Z,3.40
2018-12-12T18:15:04.721Z,3.40
2018-12-12T18:17:37.356Z,3.40
2018-12-12T18:20:09.809Z,3.40
2018-12-12T18:22:42.219Z,3.30
2018-12-12T18:25:14.645Z,3.30
2018-12-12T18:27:47.376Z,3.30
2018-12-12T18:30:19.861Z,3.30
2018-12-12T18:32:52.277Z,3.20
2018-12-12T18:35:24.713Z,3.20
2018-12-12T18:37:57.141Z,3.10
2018-12-12T18:40:29.592Z,3.00
2018-12-12T18:43:01.995Z,3.00
2018-12-12T18:45:34.431Z,3.00
2018-12-12T18:48:07.085Z,2.90
2018-12-12T18:50:40.177Z,2.90
2018-12-12T18:53:12.613Z,2.90
2018-12-12T18:55:45.839Z,2.90
2018-12-12T18:58:18.266Z,2.80
2018-12-12T19:00:51.075Z,2.80
2018-12-12T19:03:23.742Z,2.80
2018-12-12T19:05:56.156Z,2.70
2018-12-12T19:08:28.561Z,2.70
2018-12-12T19:11:01.269Z,2.70
2018-12-12T19:13:33.704Z,2.60
2018-12-12T19:16:06.239Z,2.60
2018-12-12T19:18:38.913Z,2.60
2018-12-12T19:21:11.345Z,2.60
2018-12-12T19:23:43.804Z,2.60
2018-12-12T19:26:16.448Z,2.60
2018-12-12T19:28:49.205Z,2.60
2018-12-12T19:31:21.620Z,2.60
2018-12-12T19:33:54.281Z,2.60
2018-12-12T19:36:27.044Z,2.70
2018-12-12T19:39:00.012Z,2.80
2018-12-12T19:41:32.740Z,2.90
2018-12-12T19:44:05.649Z,3.00
2018-12-12T19:46:38.095Z,3.10
2018-12-12T19:49:10.761Z,3.20
2018-12-12T19:51:43.192Z,3.20
2018-12-12T19:54:15.909Z,3.30
2018-12-12T19:56:48.350Z,3.30
2018-12-12T19:59:21.031Z,3.40
2018-12-12T20:01:53.768Z,3.50
2018-12-12T20:04:26.175Z,3.50
2018-12-12T20:06:58.614Z,3.60
2018-12-12T20:09:31.040Z,3.60
2018-12-12T20:12:03.445Z,3.60
2018-12-12T20:14:36.192Z,3.60
2018-12-12T20:17:08.646Z,3.60
2018-12-12T20:19:41.160Z,3.60
2018-12-12T20:22:13.589Z,3.70
2018-12-12T20:24:46.005Z,3.70
2018-12-12T20:27:18.451Z,3.70
2018-12-12T20:29:50.868Z,3.70
2018-12-12T20:32:23.283Z,3.70
2018-12-12T20:34:55.707Z,3.70
2018-12-12T20:37:28.133Z,3.70
2018-12-12T20:40:00.553Z,3.70
2018-12-12T20:42:33.359Z,3.70
2018-12-12T20:45:06.082Z,3.70
2018-12-12T20:47:38.564Z,3.70
2018-12-12T20:50:11.673Z,3.70
2018-12-12T20:52:44.118Z,3.70
2018-12-12T20:55:16.823Z,3.70
2018-12-12T20:57:49.245Z,3.70
2018-12-12T21:00:21.672Z,3.70
2018-12-12T21:02:54.349Z,3.70
2018-12-12T21:05:26.748Z,3.70
2018-12-12T21:07:59.325Z,3.70
2018-12-12T21:10:31.839Z,3.70
2018-12-12T21:13:04.273Z,3.70
2018-12-12T21:15:36.924Z,3.70
2018-12-12T21:18:09.339Z,3.70
2018-12-12T21:20:41.739Z,3.70
2018-12-12T21:23:14.173Z,3.70
2018-12-12T21:25:46.593Z,3.80
2018-12-12T21:28:19.012Z,3.80
2018-12-12T21:30:51.506Z,3.80
2018-12-12T21:33:23.940Z,3.80
